Aeroporto :
LOGIN :

Iscrizione | Disclaimer

   EN    FR    IT 

 










Sommario :    VFR   VFR Marginale   IFR   IFR Intensivo   IFR Molto Intensivo
Visibilità : 
Base nubi : 
>= 8 km
>= 3000ft
5 / 8 km
1000 / 3000 ft
1500m / 5 km
500 / 1000 ft
800 / 1500m
200 / 500 ft
< 800m
< 200 ft
Simboli :   Temporali  Nebbia  Neve Forte  Precipitazioni Forti  Vento > 20 kt
SIGMETs :   Varie  Temporali  Ghiacco  Turbolenza  Onda orograficha  Ceneri Vulcaniche






- Altitudine del aeroporto : 37 ft
- Codice IATA : OLB


LIEO - Olbia Costa Smeralda

ULTIMO METAR :
  • 011150Z 24014KT 9999 SCT020 15/07 Q1013

METARs OBSOLETI :
  • 011120Z 24014KT 9999 SCT020 15/08 Q1014
  • 011050Z 23015KT 9999 SCT020 15/08 Q1014
  • 011020Z 23016KT 9999 FEW020 15/09 Q1015
  • 010950Z 23016KT 9999 FEW020 14/09 Q1015
  • 010920Z 24016KT 9999 FEW020 14/09 Q1016

TAF TAF LIEO
Valido dal 01 a 12 ore il 02 a 12 ore UTC


011100Z 0112/0212 25014KT 9999 SCT030
TEMPO 0115/0121 4000 RA
BECMG 0206/0208 VRB05KT



MetMap, La meteo Aeronautica in un colpo d'occhio ! - Copyright ORBIFLY Dicembre 2007 - Disclaimer

ORBIFLY MET'MAP TEAM :

Programmazione e sviluppo : Alexandra Zaïnal
Concezione : Baudouin d'Aumeries
Aiuto per la programmazione : Marc-Olivier Méhu
Supporto tecnico e logistico : Manuel Goepfert
Aiuto per la traduzione : Arnaldo La Scala

Contatto : metmap@orbifly.com




FONTI E CREDITI :

   NOAA